Airport View

Enter AWOS ICAO identifier for current METAR.

ex. KFNL

KJAC 202056Z 17014KT 10SM -RA OVC090 05/02 A2996

21 Sep 2019 01:10

Frequency: 120.625

Phone: 307-739-9108

Other Area AWOS: KDIJ - K46U - KDUB - KRXE

TAF AMD KJAC 210049Z 2101/2124 17014KT P6SM -SHRA BKN050 OVC090 FM210300 20005KT P6SM -RA SCT015 OVC025 FM210900 21005KT P6SM VCSH BKN025 FM211300 19005KT P6SM SCT020 BKN030 AMD LTD TO CLD VIS AND WIND